createdAt,value
2019-01-13T00:03:23.406Z,52.4
2019-01-13T00:08:23.925Z,52.2
2019-01-13T00:13:24.444Z,52.2
2019-01-13T00:18:24.952Z,52.1
2019-01-13T00:23:25.430Z,52.1
2019-01-13T00:28:25.961Z,52
2019-01-13T00:33:28.091Z,51.9
2019-01-13T00:38:31.336Z,51.8
2019-01-13T00:43:31.831Z,51.7
2019-01-13T00:48:33.894Z,51.7
2019-01-13T00:53:35.975Z,51.6
2019-01-13T00:58:38.066Z,51.5
2019-01-13T01:03:40.190Z,51.4
2019-01-13T01:08:42.335Z,51.4
2019-01-13T01:13:44.485Z,51.3
2019-01-13T01:18:46.619Z,51.2
2019-01-13T01:23:49.788Z,51.1
2019-01-13T01:28:51.920Z,51.1
2019-01-13T01:33:54.041Z,51
2019-01-13T01:38:54.552Z,50.9
2019-01-13T01:43:56.102Z,50.8
2019-01-13T01:48:56.612Z,50.8
2019-01-13T01:53:57.157Z,50.7
2019-01-13T01:58:57.678Z,50.6
2019-01-13T02:03:58.849Z,50.6
2019-01-13T02:08:59.331Z,50.4
2019-01-13T02:13:59.807Z,50.4
2019-01-13T02:19:02.049Z,50.3
2019-01-13T02:24:02.490Z,50.2
2019-01-13T02:29:02.996Z,50.2
2019-01-13T02:34:03.497Z,50.1
2019-01-13T02:39:08.537Z,50.1
2019-01-13T02:44:10.673Z,49.9
2019-01-13T02:49:12.994Z,49.9
2019-01-13T02:54:15.056Z,49.8
2019-01-13T02:59:17.204Z,49.7
2019-01-13T03:04:19.288Z,49.6
2019-01-13T03:09:19.749Z,49.6
2019-01-13T03:14:20.221Z,49.5
2019-01-13T03:19:20.670Z,49.4
2019-01-13T03:24:21.140Z,49.4
2019-01-13T03:29:21.595Z,49.3
2019-01-13T03:34:22.078Z,49.2
2019-01-13T03:39:22.539Z,49.2
2019-01-13T03:44:24.665Z,49.1
2019-01-13T03:49:26.742Z,49
2019-01-13T03:54:29.351Z,48.9
2019-01-13T03:59:31.367Z,48.9
2019-01-13T04:04:33.230Z,48.8
2019-01-13T04:09:35.372Z,48.7
2019-01-13T04:14:35.852Z,48.7
2019-01-13T04:19:36.290Z,48.6
2019-01-13T04:24:36.735Z,48.6
2019-01-13T04:29:37.163Z,48.5
2019-01-13T04:34:37.635Z,48.4
2019-01-13T04:39:38.089Z,48.3
2019-01-13T04:44:38.519Z,48.3
2019-01-13T04:49:39.005Z,48.2
2019-01-13T04:54:39.449Z,48.1
2019-01-13T04:59:39.922Z,48.1
2019-01-13T05:04:40.374Z,48
2019-01-13T05:09:42.475Z,47.9
2019-01-13T05:14:44.574Z,47.9
2019-01-13T05:19:46.624Z,47.8
2019-01-13T05:24:48.659Z,47.7
2019-01-13T05:29:50.679Z,47.7
2019-01-13T05:34:52.670Z,47.6
2019-01-13T05:39:54.733Z,47.5
2019-01-13T05:44:56.734Z,47.4
2019-01-13T05:49:58.754Z,47.4
2019-01-13T05:55:00.742Z,47.3
2019-01-13T06:00:05.990Z,47.3
2019-01-13T06:05:08.429Z,47.2
2019-01-13T06:10:10.427Z,47.1
2019-01-13T06:15:12.400Z,47.1
2019-01-13T06:20:14.442Z,47
2019-01-13T06:25:17.184Z,46.9
2019-01-13T06:30:19.223Z,46.9
2019-01-13T06:35:22.209Z,46.8
2019-01-13T06:40:24.243Z,46.7
2019-01-13T06:45:26.267Z,46.7
2019-01-13T06:50:28.259Z,46.6
2019-01-13T06:55:34.287Z,46.6
2019-01-13T07:00:36.314Z,46.6
2019-01-13T07:05:38.403Z,46.5
2019-01-13T07:10:40.495Z,46.4
2019-01-13T07:15:42.551Z,46.4
2019-01-13T07:20:45.796Z,46.2
2019-01-13T07:25:47.781Z,46.2
2019-01-13T07:30:49.801Z,46.2
2019-01-13T07:35:51.855Z,46.1
2019-01-13T07:40:53.839Z,46.1
2019-01-13T07:45:56.125Z,46
2019-01-13T07:50:58.068Z,45.9
2019-01-13T07:56:00.605Z,45.9
2019-01-13T08:01:02.644Z,45.8
2019-01-13T08:06:04.740Z,45.8
2019-01-13T08:11:09.420Z,45.7
2019-01-13T08:16:11.426Z,45.6
2019-01-13T08:21:17.048Z,45.6
2019-01-13T08:26:18.556Z,45.6
2019-01-13T08:31:20.765Z,45.5
2019-01-13T08:36:23.788Z,45.4
2019-01-13T08:41:25.818Z,45.4
2019-01-13T08:46:27.813Z,45.3
2019-01-13T08:51:29.869Z,45.2
2019-01-13T08:56:31.950Z,45.2
2019-01-13T09:01:35.193Z,45.1
2019-01-13T09:06:41.292Z,45.1
2019-01-13T09:11:43.243Z,45.1
2019-01-13T09:16:45.211Z,45
2019-01-13T09:21:49.932Z,44.9
2019-01-13T09:26:54.876Z,44.9
2019-01-13T09:31:56.884Z,44.8
2019-01-13T09:36:58.889Z,44.7
2019-01-13T09:42:00.803Z,44.7
2019-01-13T09:47:02.750Z,44.7
2019-01-13T09:52:04.655Z,44.6
2019-01-13T09:57:09.535Z,44.6
2019-01-13T10:02:12.648Z,44.5
2019-01-13T10:07:14.543Z,44.4
2019-01-13T10:12:16.503Z,44.4
2019-01-13T10:17:18.437Z,44.4
2019-01-13T10:22:20.343Z,44.3
2019-01-13T10:27:22.270Z,44.2
2019-01-13T10:32:24.385Z,44.2
2019-01-13T10:37:26.304Z,44.1
2019-01-13T10:42:28.244Z,44.1
2019-01-13T10:47:31.179Z,44.1
2019-01-13T10:52:33.059Z,44
2019-01-13T10:57:34.954Z,43.9
2019-01-13T11:02:36.856Z,43.9
2019-01-13T11:07:38.746Z,43.9
2019-01-13T11:12:41.517Z,43.8
2019-01-13T11:17:44.437Z,43.7
2019-01-13T11:22:46.368Z,43.7
2019-01-13T11:27:48.621Z,43.6
2019-01-13T11:32:51.034Z,43.6
2019-01-13T11:37:52.938Z,43.6
2019-01-13T11:42:55.193Z,43.5
2019-01-13T11:47:57.309Z,43.4
2019-01-13T11:52:59.257Z,43.4
2019-01-13T11:58:03.500Z,43.4
2019-01-13T12:03:06.679Z,44.1
2019-01-13T12:08:09.838Z,46.3
2019-01-13T12:13:11.809Z,47.6
2019-01-13T12:18:14.929Z,48.7
2019-01-13T12:23:20.889Z,49.6
2019-01-13T12:28:23.080Z,50.4
2019-01-13T12:33:24.566Z,51.1
2019-01-13T12:43:32.225Z,52.2
2019-01-13T12:48:32.745Z,52.7
2019-01-13T12:53:33.516Z,53
2019-01-13T12:58:34.109Z,53.3
2019-01-13T13:03:34.669Z,53.4
2019-01-13T13:08:35.267Z,53.6
2019-01-13T13:13:36.105Z,53.6
2019-01-13T13:18:38.159Z,53.7
2019-01-13T13:23:38.713Z,53.8
2019-01-13T13:28:39.287Z,54.3
2019-01-13T13:33:40.280Z,54.6
2019-01-13T13:38:40.844Z,54.7
2019-01-13T13:43:41.410Z,55.1
2019-01-13T13:48:42.372Z,55.4
2019-01-13T13:53:45.238Z,55.7
2019-01-13T13:58:45.856Z,55.9
2019-01-13T14:03:46.522Z,56.1
2019-01-13T14:08:47.142Z,56.2
2019-01-13T14:13:47.753Z,56.4
2019-01-13T14:18:48.393Z,56.5
2019-01-13T14:23:49.059Z,56.5
2019-01-13T14:28:49.734Z,56.7
2019-01-13T14:33:52.978Z,56.9
2019-01-13T14:38:53.853Z,57.1
2019-01-13T14:43:55.491Z,56.9
2019-01-13T14:48:56.147Z,56.8
2019-01-13T14:53:56.791Z,57.1
2019-01-13T14:58:57.448Z,57.2
2019-01-13T15:03:59.967Z,57.4
2019-01-13T15:09:02.851Z,57.5
2019-01-13T15:14:07.791Z,57.6
2019-01-13T15:19:08.484Z,57.7
2019-01-13T15:24:09.167Z,57.7
2019-01-13T15:29:09.794Z,57.7
2019-01-13T15:34:10.542Z,57.9
2019-01-13T15:39:14.897Z,57.9
2019-01-13T15:44:15.534Z,57.8
2019-01-13T15:49:16.158Z,57.9
2019-01-13T15:54:16.847Z,57.9
2019-01-13T15:59:17.621Z,57.9
2019-01-13T16:04:21.981Z,57.9
2019-01-13T16:09:22.687Z,57.9
2019-01-13T16:14:24.342Z,57.9
2019-01-13T16:19:24.942Z,57.9
2019-01-13T16:24:26.131Z,57.9
2019-01-13T16:29:26.787Z,57.9
2019-01-13T16:34:27.371Z,57.8
2019-01-13T16:39:28.093Z,57.9
2019-01-13T16:44:29.120Z,57.9
2019-01-13T16:49:29.801Z,57.8
2019-01-13T16:54:30.477Z,57.7
2019-01-13T16:59:34.023Z,57.7
2019-01-13T17:04:34.712Z,57.8
2019-01-13T17:09:36.244Z,57.7
2019-01-13T17:14:36.852Z,57.7
2019-01-13T17:19:40.184Z,57.7
2019-01-13T17:24:41.892Z,57.6
2019-01-13T17:29:42.500Z,57.7
2019-01-13T17:34:43.111Z,57.6
2019-01-13T17:39:52.818Z,58
2019-01-13T17:44:53.476Z,58.3
2019-01-13T17:49:54.186Z,58.6
2019-01-13T17:55:03.869Z,58.6
2019-01-13T18:00:08.617Z,58.6
2019-01-13T18:05:12.296Z,58.7
2019-01-13T18:10:12.969Z,58.7
2019-01-13T18:15:13.747Z,58.7
2019-01-13T18:20:14.475Z,58.7
2019-01-13T18:25:15.211Z,58.7
2019-01-13T18:30:25.800Z,58.7
2019-01-13T18:35:26.644Z,58.7
2019-01-13T18:40:27.697Z,58.7
2019-01-13T18:45:28.410Z,58.7
2019-01-13T18:50:29.115Z,58.7
2019-01-13T18:55:29.757Z,58.7
2019-01-13T19:00:30.447Z,58.6
2019-01-13T19:05:31.127Z,58.6
2019-01-13T19:10:31.878Z,58.5
2019-01-13T19:15:32.785Z,58.4
2019-01-13T19:20:33.464Z,58.4
2019-01-13T19:25:34.154Z,58.4
2019-01-13T19:30:34.902Z,58.3
2019-01-13T19:35:35.574Z,58.3
2019-01-13T19:40:36.259Z,58.2
2019-01-13T19:45:37.126Z,58.1
2019-01-13T19:50:37.821Z,58.1
2019-01-13T19:55:38.476Z,58
2019-01-13T20:00:39.165Z,57.9
2019-01-13T20:05:39.850Z,57.9
2019-01-13T20:10:40.662Z,57.8
2019-01-13T20:15:44.398Z,57.7
2019-01-13T20:16:57.858Z,57.7
2019-01-13T20:21:58.474Z,57.7
2019-01-13T20:26:59.314Z,57.6
2019-01-13T20:31:59.941Z,57.6
2019-01-13T20:37:00.695Z,57.4
2019-01-13T20:42:01.364Z,55.8
2019-01-13T20:47:03.124Z,54.1
2019-01-13T20:52:07.625Z,52.7
2019-01-13T20:57:08.242Z,52.4
2019-01-13T21:02:08.839Z,52.2
2019-01-13T21:07:09.359Z,52.1
2019-01-13T21:12:12.962Z,51.9
2019-01-13T21:17:15.130Z,51.8
2019-01-13T21:22:17.285Z,51.7
2019-01-13T21:27:22.362Z,51.6
2019-01-13T21:32:24.535Z,51.5
2019-01-13T21:37:26.653Z,51.4
2019-01-13T21:42:28.804Z,51.2
2019-01-13T21:47:30.912Z,51.1
2019-01-13T21:52:33.071Z,51
2019-01-13T21:57:36.583Z,50.9
2019-01-13T22:02:37.249Z,50.8
2019-01-13T22:07:37.753Z,50.7
2019-01-13T22:12:38.219Z,50.4
2019-01-13T22:17:38.737Z,50.2
2019-01-13T22:22:48.435Z,50.1
2019-01-13T22:27:49.278Z,50
2019-01-13T22:32:49.818Z,49.9
2019-01-13T22:37:55.723Z,49.8
2019-01-13T22:43:00.153Z,49.7
2019-01-13T22:48:02.290Z,49.6
2019-01-13T22:53:04.608Z,49.5
2019-01-13T22:58:06.697Z,49.4
2019-01-13T23:03:08.804Z,49.3
2019-01-13T23:08:10.960Z,49.2
2019-01-13T23:13:13.071Z,49.1
2019-01-13T23:18:15.234Z,48.9
2019-01-13T23:23:20.226Z,48.9
2019-01-13T23:28:22.843Z,48.7
2019-01-13T23:33:24.951Z,48.7
2019-01-13T23:38:27.024Z,48.6
2019-01-13T23:43:29.142Z,48.5
2019-01-13T23:48:31.193Z,48.4
2019-01-13T23:53:33.243Z,48.3
2019-01-13T23:58:35.408Z,48.2
